HJ4312 SKGY-SKVV
Flight info
| Callsign | HJ4312 |
|---|---|
| Flight time | 0h 47m |
| Altitude | 29000 |
| Route | ZIP W20 AKROB DCT EYP W25 UBNOT |
| Aircraft | SF50/L-BDGRSWY/LB2U2 |
Departure
| Time | 2026-05-03 20:53 |
|---|---|
| Airport | Guaymaral Airport (SKGY) |
Arrival
| Time | 2026-05-03 21:41 |
|---|---|
| Airport | Vanguardia Airport (SKVV) |
| Time | Latitude | Longitude | Altitude | Speed | Heading |
|---|---|---|---|---|---|
| 2026-05-03 20:22 | 4.81584 | -74.07067 | 8394 ft | 0 kts | 192° |
| 2026-05-03 20:45 | 4.81579 | -74.07068 | 8394 ft | 5 kts | 192° |
| 2026-05-03 20:46 | 4.81508 | -74.07087 | 8394 ft | 12 kts | 198° |
| 2026-05-03 20:46 | 4.81495 | -74.07117 | 8394 ft | 3 kts | 283° |
| 2026-05-03 20:46 | 4.81506 | -74.07163 | 8394 ft | 15 kts | 283° |
| 2026-05-03 20:46 | 4.81510 | -74.07237 | 8394 ft | 7 kts | 192° |
| 2026-05-03 20:47 | 4.81476 | -74.07243 | 8395 ft | 4 kts | 192° |
| 2026-05-03 20:47 | 4.81467 | -74.07245 | 8395 ft | 0 kts | 192° |
| 2026-05-03 20:51 | 4.81465 | -74.07245 | 8395 ft | 4 kts | 192° |
| 2026-05-03 20:51 | 4.81421 | -74.07223 | 8396 ft | 0 kts | 103° |
| 2026-05-03 20:52 | 4.81404 | -74.07152 | 8395 ft | 33 kts | 103° |
| 2026-05-03 20:53 | 4.81313 | -74.06766 | 8392 ft | 80 kts | 103° |
| 2026-05-03 20:53 | 4.81155 | -74.06099 | 8394 ft | 118 kts | 103° |
| 2026-05-03 20:53 | 4.80962 | -74.05307 | 8774 ft | 118 kts | 101° |
| 2026-05-03 20:53 | 4.81278 | -74.04588 | 9094 ft | 132 kts | 26° |
| 2026-05-03 20:54 | 4.82280 | -74.04452 | 9138 ft | 157 kts | 14° |
| 2026-05-03 20:54 | 4.84306 | -74.03810 | 9927 ft | 146 kts | 17° |
| 2026-05-03 20:54 | 4.85254 | -74.03567 | 10348 ft | 137 kts | 21° |
| 2026-05-03 20:55 | 4.86135 | -74.03311 | 10731 ft | 126 kts | 24° |
| 2026-05-03 20:55 | 4.86934 | -74.03079 | 11106 ft | 112 kts | 25° |
| 2026-05-03 20:55 | 4.87695 | -74.02843 | 11330 ft | 123 kts | 25° |
| 2026-05-03 20:55 | 4.88573 | -74.02578 | 11514 ft | 141 kts | 22° |
| 2026-05-03 20:56 | 4.89568 | -74.02292 | 11695 ft | 158 kts | 21° |
| 2026-05-03 20:56 | 4.90685 | -74.01963 | 11868 ft | 175 kts | 21° |
| 2026-05-03 20:56 | 4.91897 | -74.01604 | 12021 ft | 189 kts | 20° |
| 2026-05-03 20:56 | 4.93202 | -74.01222 | 12171 ft | 199 kts | 20° |
| 2026-05-03 20:57 | 4.94548 | -74.00826 | 12311 ft | 203 kts | 21° |
| 2026-05-03 20:57 | 4.95904 | -74.00427 | 12441 ft | 204 kts | 21° |
| 2026-05-03 20:57 | 4.97264 | -74.00029 | 12575 ft | 203 kts | 20° |
| 2026-05-03 20:57 | 4.98623 | -73.99629 | 12706 ft | 203 kts | 20° |
| 2026-05-03 20:58 | 4.99978 | -73.99228 | 12835 ft | 204 kts | 21° |
| 2026-05-03 20:58 | 5.01273 | -73.98728 | 12962 ft | 201 kts | 34° |
| 2026-05-03 20:58 | 5.02340 | -73.97823 | 13101 ft | 198 kts | 52° |
| 2026-05-03 20:58 | 5.03098 | -73.96711 | 13239 ft | 195 kts | 62° |
| 2026-05-03 20:59 | 5.03833 | -73.95559 | 13376 ft | 197 kts | 59° |
| 2026-05-03 20:59 | 5.04587 | -73.94416 | 13515 ft | 196 kts | 59° |
| 2026-05-03 20:59 | 5.05333 | -73.93271 | 13661 ft | 194 kts | 59° |
| 2026-05-03 20:59 | 5.06039 | -73.92180 | 13796 ft | 179 kts | 61° |
| 2026-05-03 21:00 | 5.06693 | -73.91169 | 13921 ft | 167 kts | 61° |
| 2026-05-03 21:00 | 5.07116 | -73.90513 | 13992 ft | 164 kts | 61° |
| 2026-05-03 21:00 | 5.07921 | -73.89274 | 14152 ft | 156 kts | 61° |
| 2026-05-03 21:00 | 5.08504 | -73.88371 | 14272 ft | 152 kts | 60° |
| 2026-05-03 21:01 | 5.09083 | -73.87475 | 14390 ft | 153 kts | 61° |
| 2026-05-03 21:01 | 5.09663 | -73.86583 | 14516 ft | 153 kts | 60° |
| 2026-05-03 21:01 | 5.10241 | -73.85691 | 14647 ft | 153 kts | 60° |
| 2026-05-03 21:01 | 5.10821 | -73.84790 | 14785 ft | 153 kts | 61° |
| 2026-05-03 21:02 | 5.11402 | -73.83893 | 14918 ft | 153 kts | 62° |
| 2026-05-03 21:02 | 5.11984 | -73.82994 | 15063 ft | 154 kts | 61° |
| 2026-05-03 21:02 | 5.12567 | -73.82092 | 15208 ft | 155 kts | 61° |
| 2026-05-03 21:02 | 5.13145 | -73.81201 | 15345 ft | 153 kts | 61° |
| 2026-05-03 21:03 | 5.13730 | -73.80290 | 15484 ft | 154 kts | 61° |
| 2026-05-03 21:03 | 5.14307 | -73.79398 | 15628 ft | 154 kts | 60° |
| 2026-05-03 21:03 | 5.14895 | -73.78491 | 15764 ft | 156 kts | 61° |
| 2026-05-03 21:03 | 5.15485 | -73.77579 | 15906 ft | 156 kts | 61° |
| 2026-05-03 21:04 | 5.16069 | -73.76674 | 16046 ft | 156 kts | 61° |
| 2026-05-03 21:04 | 5.16661 | -73.75763 | 16198 ft | 155 kts | 61° |
| 2026-05-03 21:04 | 5.17242 | -73.74865 | 16346 ft | 150 kts | 61° |
| 2026-05-03 21:04 | 5.17804 | -73.74002 | 16483 ft | 145 kts | 61° |
| 2026-05-03 21:05 | 5.18346 | -73.73157 | 16621 ft | 143 kts | 61° |
| 2026-05-03 21:05 | 5.18886 | -73.72322 | 16766 ft | 145 kts | 61° |
| 2026-05-03 21:05 | 5.19460 | -73.71431 | 16922 ft | 158 kts | 61° |
| 2026-05-03 21:05 | 5.20080 | -73.70470 | 17085 ft | 169 kts | 60° |
| 2026-05-03 21:06 | 5.20736 | -73.69453 | 17250 ft | 178 kts | 61° |
| 2026-05-03 21:06 | 5.21426 | -73.68385 | 17413 ft | 186 kts | 60° |
| 2026-05-03 21:06 | 5.22137 | -73.67270 | 17578 ft | 194 kts | 60° |
| 2026-05-03 21:06 | 5.22884 | -73.66126 | 17736 ft | 204 kts | 60° |
| 2026-05-03 21:07 | 5.23692 | -73.64884 | 17749 ft | 221 kts | 60° |
| 2026-05-03 21:07 | 5.24558 | -73.63544 | 17754 ft | 236 kts | 59° |
| 2026-05-03 21:07 | 5.25478 | -73.62124 | 17750 ft | 248 kts | 59° |
| 2026-05-03 21:07 | 5.26435 | -73.60646 | 17750 ft | 257 kts | 59° |
| 2026-05-03 21:08 | 5.27416 | -73.59128 | 17844 ft | 260 kts | 59° |
| 2026-05-03 21:08 | 5.28408 | -73.57597 | 17972 ft | 260 kts | 59° |
| 2026-05-03 21:08 | 5.29380 | -73.56095 | 18062 ft | 263 kts | 59° |
| 2026-05-03 21:08 | 5.30383 | -73.54545 | 18062 ft | 268 kts | 59° |
| 2026-05-03 21:09 | 5.31407 | -73.52960 | 18067 ft | 272 kts | 59° |
| 2026-05-03 21:09 | 5.32440 | -73.51363 | 18069 ft | 274 kts | 59° |
| 2026-05-03 21:09 | 5.33484 | -73.49748 | 18070 ft | 276 kts | 59° |
| 2026-05-03 21:09 | 5.34534 | -73.48124 | 18072 ft | 277 kts | 59° |
| 2026-05-03 21:10 | 5.35584 | -73.46500 | 18071 ft | 278 kts | 59° |
| 2026-05-03 21:10 | 5.36628 | -73.44859 | 18075 ft | 278 kts | 61° |
| 2026-05-03 21:10 | 5.37390 | -73.43083 | 18069 ft | 277 kts | 74° |
| 2026-05-03 21:10 | 5.37746 | -73.41191 | 18065 ft | 277 kts | 85° |
| 2026-05-03 21:11 | 5.37691 | -73.39257 | 18061 ft | 277 kts | 96° |
| 2026-05-03 21:11 | 5.37247 | -73.37387 | 18058 ft | 279 kts | 113° |
| 2026-05-03 21:11 | 5.36054 | -73.35844 | 18060 ft | 283 kts | 136° |
| 2026-05-03 21:11 | 5.34388 | -73.34815 | 18062 ft | 287 kts | 152° |
| 2026-05-03 21:12 | 5.32566 | -73.33991 | 18067 ft | 287 kts | 152° |
| 2026-05-03 21:12 | 5.30758 | -73.33141 | 18067 ft | 287 kts | 150° |
| 2026-05-03 21:12 | 5.28964 | -73.32252 | 18063 ft | 287 kts | 150° |
| 2026-05-03 21:12 | 5.27170 | -73.31370 | 18065 ft | 288 kts | 150° |
| 2026-05-03 21:13 | 5.25359 | -73.30499 | 18067 ft | 289 kts | 151° |
| 2026-05-03 21:13 | 5.23546 | -73.29624 | 18061 ft | 289 kts | 151° |
| 2026-05-03 21:13 | 5.21729 | -73.28741 | 18065 ft | 291 kts | 150° |
| 2026-05-03 21:13 | 5.19907 | -73.27855 | 18063 ft | 291 kts | 151° |
| 2026-05-03 21:14 | 5.18084 | -73.26974 | 18062 ft | 291 kts | 151° |
| 2026-05-03 21:14 | 5.16262 | -73.26093 | 18057 ft | 290 kts | 151° |
| 2026-05-03 21:14 | 5.14443 | -73.25210 | 18054 ft | 290 kts | 150° |
| 2026-05-03 21:14 | 5.12634 | -73.24334 | 18050 ft | 289 kts | 151° |
| 2026-05-03 21:15 | 5.10821 | -73.23455 | 18043 ft | 289 kts | 151° |
| 2026-05-03 21:15 | 5.09031 | -73.22587 | 18041 ft | 289 kts | 151° |
| 2026-05-03 21:15 | 5.07219 | -73.21709 | 18035 ft | 289 kts | 151° |
| 2026-05-03 21:15 | 5.05406 | -73.20832 | 18035 ft | 289 kts | 151° |
| 2026-05-03 21:16 | 5.03598 | -73.19956 | 18031 ft | 288 kts | 151° |
| 2026-05-03 21:16 | 5.01787 | -73.19080 | 18026 ft | 289 kts | 151° |
| 2026-05-03 21:16 | 4.99975 | -73.18203 | 18021 ft | 289 kts | 151° |
| 2026-05-03 21:16 | 4.98160 | -73.17325 | 18013 ft | 290 kts | 151° |
| 2026-05-03 21:17 | 4.96345 | -73.16445 | 18009 ft | 289 kts | 151° |
| 2026-05-03 21:17 | 4.95143 | -73.15864 | 18011 ft | 289 kts | 150° |
| 2026-05-03 21:17 | 4.92714 | -73.14689 | 18002 ft | 290 kts | 150° |
| 2026-05-03 21:17 | 4.90899 | -73.13810 | 17998 ft | 290 kts | 151° |
| 2026-05-03 21:18 | 4.89071 | -73.12925 | 17988 ft | 290 kts | 151° |
| 2026-05-03 21:18 | 4.87277 | -73.12057 | 17987 ft | 290 kts | 151° |
| 2026-05-03 21:18 | 4.85459 | -73.11178 | 17974 ft | 289 kts | 151° |
| 2026-05-03 21:18 | 4.83644 | -73.10299 | 17975 ft | 289 kts | 151° |
| 2026-05-03 21:19 | 4.81833 | -73.09421 | 17969 ft | 289 kts | 151° |
| 2026-05-03 21:19 | 4.80018 | -73.08544 | 17967 ft | 289 kts | 151° |
| 2026-05-03 21:19 | 4.78205 | -73.07666 | 17966 ft | 289 kts | 151° |
| 2026-05-03 21:19 | 4.76391 | -73.06788 | 17957 ft | 289 kts | 151° |
| 2026-05-03 21:20 | 4.74580 | -73.05912 | 17957 ft | 289 kts | 151° |
| 2026-05-03 21:20 | 4.72770 | -73.05035 | 17950 ft | 289 kts | 151° |
| 2026-05-03 21:20 | 4.70957 | -73.04158 | 17943 ft | 289 kts | 151° |
| 2026-05-03 21:20 | 4.69152 | -73.03285 | 17939 ft | 288 kts | 150° |
| 2026-05-03 21:21 | 4.67341 | -73.02408 | 17939 ft | 288 kts | 151° |
| 2026-05-03 21:21 | 4.65518 | -73.01526 | 17721 ft | 295 kts | 151° |
| 2026-05-03 21:21 | 4.63642 | -73.00670 | 17311 ft | 306 kts | 156° |
| 2026-05-03 21:21 | 4.61516 | -73.00200 | 16886 ft | 312 kts | 170° |
| 2026-05-03 21:22 | 4.59372 | -73.00215 | 16474 ft | 311 kts | 183° |
| 2026-05-03 21:22 | 4.57279 | -73.00704 | 16068 ft | 309 kts | 196° |
| 2026-05-03 21:22 | 4.55350 | -73.01643 | 15661 ft | 309 kts | 209° |
| 2026-05-03 21:22 | 4.53673 | -73.02989 | 15251 ft | 310 kts | 223° |
| 2026-05-03 21:23 | 4.52303 | -73.04651 | 14850 ft | 309 kts | 231° |
| 2026-05-03 21:23 | 4.51006 | -73.06364 | 14443 ft | 307 kts | 231° |
| 2026-05-03 21:23 | 4.49700 | -73.08050 | 14034 ft | 305 kts | 231° |
| 2026-05-03 21:23 | 4.48406 | -73.09726 | 13614 ft | 303 kts | 231° |
| 2026-05-03 21:24 | 4.47125 | -73.11400 | 13196 ft | 300 kts | 231° |
| 2026-05-03 21:24 | 4.45861 | -73.13048 | 12793 ft | 297 kts | 231° |
| 2026-05-03 21:24 | 4.44602 | -73.14684 | 12402 ft | 294 kts | 231° |
| 2026-05-03 21:24 | 4.43358 | -73.16304 | 12006 ft | 292 kts | 231° |
| 2026-05-03 21:25 | 4.42127 | -73.17905 | 11620 ft | 289 kts | 231° |
| 2026-05-03 21:25 | 4.40923 | -73.19472 | 11251 ft | 286 kts | 231° |
| 2026-05-03 21:25 | 4.39901 | -73.20801 | 10934 ft | 284 kts | 231° |
| 2026-05-03 21:25 | 4.38731 | -73.22323 | 10568 ft | 281 kts | 231° |
| 2026-05-03 21:26 | 4.37541 | -73.23871 | 10193 ft | 279 kts | 231° |
| 2026-05-03 21:26 | 4.36381 | -73.25382 | 9831 ft | 261 kts | 231° |
| 2026-05-03 21:26 | 4.35341 | -73.26738 | 9505 ft | 232 kts | 231° |
| 2026-05-03 21:26 | 4.34390 | -73.27972 | 9248 ft | 217 kts | 231° |
| 2026-05-03 21:27 | 4.33477 | -73.29159 | 8990 ft | 214 kts | 231° |
| 2026-05-03 21:27 | 4.32571 | -73.30337 | 8724 ft | 213 kts | 231° |
| 2026-05-03 21:27 | 4.31665 | -73.31514 | 8446 ft | 213 kts | 231° |
| 2026-05-03 21:27 | 4.30760 | -73.32691 | 8169 ft | 212 kts | 232° |
| 2026-05-03 21:28 | 4.29859 | -73.33863 | 7894 ft | 212 kts | 231° |
| 2026-05-03 21:28 | 4.29070 | -73.35094 | 7614 ft | 211 kts | 247° |
| 2026-05-03 21:28 | 4.28773 | -73.36507 | 7346 ft | 210 kts | 268° |
| 2026-05-03 21:28 | 4.28977 | -73.37941 | 7071 ft | 208 kts | 289° |
| 2026-05-03 21:29 | 4.29467 | -73.39297 | 6805 ft | 207 kts | 290° |
| 2026-05-03 21:29 | 4.29936 | -73.40654 | 6536 ft | 205 kts | 289° |
| 2026-05-03 21:29 | 4.30397 | -73.42003 | 6260 ft | 205 kts | 290° |
| 2026-05-03 21:29 | 4.30857 | -73.43334 | 5986 ft | 203 kts | 290° |
| 2026-05-03 21:30 | 4.31319 | -73.44666 | 5722 ft | 202 kts | 290° |
| 2026-05-03 21:30 | 4.31777 | -73.45991 | 5454 ft | 201 kts | 289° |
| 2026-05-03 21:30 | 4.32018 | -73.47358 | 5185 ft | 200 kts | 269° |
| 2026-05-03 21:30 | 4.31745 | -73.48647 | 4940 ft | 177 kts | 249° |
| 2026-05-03 21:31 | 4.31091 | -73.49608 | 4705 ft | 163 kts | 218° |
| 2026-05-03 21:31 | 4.30051 | -73.49884 | 4453 ft | 156 kts | 171° |
| 2026-05-03 21:31 | 4.29087 | -73.49443 | 4216 ft | 153 kts | 139° |
| 2026-05-03 21:31 | 4.28537 | -73.48558 | 3975 ft | 151 kts | 104° |
| 2026-05-03 21:32 | 4.28517 | -73.47519 | 3745 ft | 150 kts | 79° |
| 2026-05-03 21:32 | 4.28976 | -73.46598 | 3519 ft | 149 kts | 47° |
| 2026-05-03 21:32 | 4.29514 | -73.46176 | 3374 ft | 149 kts | 28° |
| 2026-05-03 21:32 | 4.30517 | -73.45957 | 3148 ft | 150 kts | 358° |
| 2026-05-03 21:33 | 4.31752 | -73.46510 | 2974 ft | 150 kts | 316° |
| 2026-05-03 21:33 | 4.32156 | -73.47088 | 2966 ft | 152 kts | 295° |
| 2026-05-03 21:33 | 4.32304 | -73.48108 | 2966 ft | 153 kts | 263° |
| 2026-05-03 21:33 | 4.31886 | -73.49078 | 2969 ft | 154 kts | 230° |
| 2026-05-03 21:34 | 4.31062 | -73.49775 | 2967 ft | 153 kts | 217° |
| 2026-05-03 21:34 | 4.30233 | -73.50446 | 2972 ft | 153 kts | 219° |
| 2026-05-03 21:34 | 4.29420 | -73.51117 | 2968 ft | 153 kts | 218° |
| 2026-05-03 21:34 | 4.28613 | -73.51774 | 2962 ft | 148 kts | 217° |
| 2026-05-03 21:35 | 4.27860 | -73.52383 | 2952 ft | 136 kts | 218° |
| 2026-05-03 21:35 | 4.27100 | -73.52998 | 2960 ft | 144 kts | 218° |
| 2026-05-03 21:35 | 4.26298 | -73.53650 | 2970 ft | 151 kts | 218° |
| 2026-05-03 21:35 | 4.25472 | -73.54322 | 2973 ft | 153 kts | 218° |
| 2026-05-03 21:36 | 4.24640 | -73.54997 | 2972 ft | 153 kts | 218° |
| 2026-05-03 21:36 | 4.23809 | -73.55671 | 2963 ft | 154 kts | 219° |
| 2026-05-03 21:36 | 4.22938 | -73.56298 | 2980 ft | 156 kts | 209° |
| 2026-05-03 21:36 | 4.22021 | -73.56848 | 3115 ft | 148 kts | 210° |
| 2026-05-03 21:37 | 4.21150 | -73.57321 | 3060 ft | 151 kts | 205° |
| 2026-05-03 21:37 | 4.20163 | -73.57713 | 2925 ft | 155 kts | 197° |
| 2026-05-03 21:37 | 4.19174 | -73.58051 | 3057 ft | 150 kts | 196° |
| 2026-05-03 21:37 | 4.18131 | -73.58303 | 3052 ft | 158 kts | 191° |
| 2026-05-03 21:38 | 4.17098 | -73.58529 | 3243 ft | 148 kts | 192° |
| 2026-05-03 21:38 | 4.16057 | -73.58771 | 3245 ft | 152 kts | 190° |
| 2026-05-03 21:38 | 4.15053 | -73.58878 | 3440 ft | 145 kts | 180° |
| 2026-05-03 21:38 | 4.14005 | -73.59074 | 3273 ft | 161 kts | 197° |
| 2026-05-03 21:39 | 4.13070 | -73.59583 | 3480 ft | 139 kts | 218° |
| 2026-05-03 21:39 | 4.12469 | -73.60387 | 3219 ft | 153 kts | 254° |
| 2026-05-03 21:39 | 4.12664 | -73.61360 | 3088 ft | 148 kts | 306° |
| 2026-05-03 21:39 | 4.13418 | -73.62107 | 2771 ft | 147 kts | 319° |
| 2026-05-03 21:40 | 4.14219 | -73.62724 | 2387 ft | 145 kts | 336° |
| 2026-05-03 21:40 | 4.15171 | -73.62670 | 1937 ft | 145 kts | 25° |
| 2026-05-03 21:40 | 4.15954 | -73.62065 | 1531 ft | 136 kts | 38° |
| 2026-05-03 21:40 | 4.16642 | -73.61498 | 1373 ft | 116 kts | 35° |
| 2026-05-03 21:41 | 4.17188 | -73.61063 | 1376 ft | 77 kts | 39° |
| 2026-05-03 21:41 | 4.17465 | -73.60833 | 1374 ft | 38 kts | 39° |
| 2026-05-03 21:41 | 4.17571 | -73.60760 | 1373 ft | 6 kts | 117° |
| 2026-05-03 21:41 | 4.17533 | -73.60779 | 1373 ft | 9 kts | 216° |
| 2026-05-03 21:42 | 4.17444 | -73.60847 | 1374 ft | 27 kts | 219° |
| 2026-05-03 21:42 | 4.17242 | -73.61009 | 1374 ft | 41 kts | 219° |
| 2026-05-03 21:42 | 4.17050 | -73.61166 | 1375 ft | 29 kts | 218° |
| 2026-05-03 21:42 | 4.16995 | -73.61245 | 1375 ft | 8 kts | 284° |
| 2026-05-03 21:43 | 4.17017 | -73.61277 | 1374 ft | 5 kts | 306° |
| 2026-05-03 21:43 | 4.17022 | -73.61291 | 1374 ft | 2 kts | 259° |
| 2026-05-03 21:43 | 4.16991 | -73.61318 | 1374 ft | 8 kts | 216° |
| 2026-05-03 21:43 | 4.16937 | -73.61361 | 1374 ft | 12 kts | 218° |
| 2026-05-03 21:44 | 4.16896 | -73.61434 | 1373 ft | 8 kts | 311° |
| 2026-05-03 21:44 | 4.16915 | -73.61463 | 1373 ft | 0 kts | 159° |